createdAt,value
2023-12-11T00:00:39.629Z,59.90
2023-12-11T00:03:09.374Z,64.40
2023-12-11T00:05:39.998Z,70.90
2023-12-11T00:08:09.871Z,67.90
2023-12-11T00:10:37.377Z,63.10
2023-12-11T00:13:07.668Z,65.10
2023-12-11T00:15:35.567Z,62.10
2023-12-11T00:18:03.486Z,62.80
2023-12-11T00:20:31.178Z,60.30
2023-12-11T00:22:58.964Z,61.60
2023-12-11T00:25:28.375Z,63.70
2023-12-11T00:27:56.128Z,68.80
2023-12-11T00:30:24.077Z,63.00
2023-12-11T00:32:53.116Z,54.80
2023-12-11T00:35:20.615Z,59.70
2023-12-11T00:37:48.285Z,60.50
2023-12-11T00:40:16.007Z,57.50
2023-12-11T00:44:19.977Z,58.90
2023-12-11T00:46:47.586Z,66.00
2023-12-11T00:49:15.132Z,65.40
2023-12-11T00:51:44.202Z,61.80
2023-12-11T00:54:12.155Z,57.30
2023-12-11T00:56:39.940Z,64.30
2023-12-11T00:59:07.618Z,53.50
2023-12-11T01:01:35.173Z,56.60
2023-12-11T01:04:04.835Z,51.70
2023-12-11T01:06:32.500Z,54.20
2023-12-11T01:09:00.094Z,59.80
2023-12-11T01:11:27.683Z,54.60
2023-12-11T01:13:55.216Z,60.50
2023-12-11T01:16:23.893Z,62.80
2023-12-11T01:18:52.196Z,56.30
2023-12-11T01:21:19.825Z,51.40
2023-12-11T01:23:49.443Z,53.40
2023-12-11T01:26:16.967Z,60.00
2023-12-11T01:28:44.632Z,56.80
2023-12-11T01:31:12.285Z,58.30
2023-12-11T01:33:39.941Z,54.10
2023-12-11T01:36:07.803Z,55.50
2023-12-11T01:38:35.319Z,55.30
2023-12-11T01:41:03.624Z,55.80
2023-12-11T01:43:31.191Z,53.00
2023-12-11T01:46:06.633Z,59.30
2023-12-11T01:48:35.441Z,51.60
2023-12-11T01:51:04.126Z,58.70
2023-12-11T01:53:31.730Z,55.50
2023-12-11T01:56:01.085Z,54.30
2023-12-11T01:58:30.939Z,53.30
2023-12-11T02:00:58.993Z,55.10
2023-12-11T02:03:26.708Z,53.90
2023-12-11T02:05:54.333Z,56.50
2023-12-11T02:08:21.877Z,53.60
2023-12-11T02:10:49.958Z,53.50
2023-12-11T02:13:17.652Z,52.70
2023-12-11T02:15:46.151Z,53.30
2023-12-11T02:18:15.824Z,52.20
2023-12-11T02:20:44.235Z,46.70
2023-12-11T02:23:19.464Z,51.80
2023-12-11T02:25:47.641Z,53.00
2023-12-11T02:28:16.096Z,56.50
2023-12-11T02:30:51.109Z,55.40
2023-12-11T02:33:19.279Z,57.80
2023-12-11T02:35:46.937Z,50.80
2023-12-11T02:38:14.445Z,48.40
2023-12-11T02:40:42.252Z,51.10
2023-12-11T02:43:10.170Z,49.50
2023-12-11T02:45:37.729Z,50.90
2023-12-11T02:48:06.645Z,49.90
2023-12-11T02:50:34.389Z,51.50
2023-12-11T02:53:03.034Z,51.60
2023-12-11T02:55:30.741Z,56.70
2023-12-11T02:57:59.586Z,46.60
2023-12-11T03:00:31.996Z,52.50
2023-12-11T03:02:59.826Z,51.20
2023-12-11T03:05:27.498Z,51.10
2023-12-11T03:07:55.024Z,48.20
2023-12-11T03:10:24.438Z,48.00
2023-12-11T03:12:53.706Z,45.60
2023-12-11T03:15:21.350Z,43.40
2023-12-11T03:17:49.251Z,46.40
2023-12-11T03:20:16.806Z,45.90
2023-12-11T03:22:44.582Z,51.80
2023-12-11T03:25:12.346Z,50.00
2023-12-11T03:27:40.003Z,52.50
2023-12-11T03:30:08.233Z,50.90
2023-12-11T03:32:36.077Z,51.20
2023-12-11T03:35:04.648Z,51.80
2023-12-11T03:37:33.936Z,53.00
2023-12-11T03:40:03.261Z,51.90
2023-12-11T03:42:30.912Z,48.60
2023-12-11T03:44:59.792Z,56.10
2023-12-11T03:47:27.584Z,56.40
2023-12-11T03:49:55.955Z,53.40
2023-12-11T03:52:23.551Z,60.80
2023-12-11T03:54:51.211Z,61.00
2023-12-11T03:57:18.966Z,57.70
2023-12-11T03:59:46.554Z,61.10
2023-12-11T04:02:14.254Z,66.60
2023-12-11T04:04:42.241Z,66.70
2023-12-11T04:07:10.128Z,65.20
2023-12-11T04:09:37.737Z,67.50
2023-12-11T04:12:07.817Z,69.60
2023-12-11T04:14:36.128Z,68.50
2023-12-11T04:17:03.794Z,70.20
2023-12-11T04:19:31.420Z,80.00
2023-12-11T04:21:59.679Z,77.20
2023-12-11T04:24:27.344Z,76.20
2023-12-11T04:26:54.948Z,81.50
2023-12-11T04:29:22.640Z,80.30
2023-12-11T04:31:50.158Z,82.90
2023-12-11T04:34:17.744Z,73.80
2023-12-11T04:36:45.608Z,71.70
2023-12-11T04:39:14.098Z,77.00
2023-12-11T04:41:41.890Z,78.70
2023-12-11T04:44:09.439Z,78.80
2023-12-11T04:46:39.331Z,75.70
2023-12-11T04:49:07.058Z,69.80
2023-12-11T04:51:34.769Z,75.70
2023-12-11T04:54:03.195Z,90.70
2023-12-11T04:56:31.940Z,90.60
2023-12-11T04:58:59.596Z,83.60
2023-12-11T05:01:28.227Z,81.40
2023-12-11T05:03:55.851Z,70.70
2023-12-11T05:06:23.339Z,73.50
2023-12-11T05:08:53.001Z,61.70
2023-12-11T05:11:22.454Z,66.90
2023-12-11T05:13:50.143Z,60.90
2023-12-11T05:16:17.981Z,65.40
2023-12-11T05:18:45.605Z,57.00
2023-12-11T05:21:14.888Z,67.40
2023-12-11T05:23:43.176Z,55.40
2023-12-11T05:26:10.767Z,74.90
2023-12-11T05:28:38.306Z,68.20
2023-12-11T05:31:07.576Z,77.60
2023-12-11T05:33:35.427Z,85.60
2023-12-11T05:36:03.309Z,56.20
2023-12-11T05:38:30.953Z,59.30
2023-12-11T05:41:01.179Z,55.90
2023-12-11T05:43:28.746Z,58.00
2023-12-11T05:45:56.353Z,59.30
2023-12-11T05:48:24.317Z,60.20
2023-12-11T05:50:53.071Z,61.10
2023-12-11T05:53:21.810Z,67.30
2023-12-11T05:55:49.362Z,53.60
2023-12-11T05:58:17.573Z,57.60
2023-12-11T06:00:46.436Z,54.70
2023-12-11T06:03:15.184Z,54.40
2023-12-11T06:05:42.923Z,55.70
2023-12-11T06:08:11.955Z,57.80
2023-12-11T06:10:39.545Z,58.40
2023-12-11T06:13:08.344Z,51.80
2023-12-11T06:15:35.957Z,53.90
2023-12-11T06:18:03.837Z,50.70
2023-12-11T06:20:31.506Z,54.20
2023-12-11T06:22:59.348Z,54.90
2023-12-11T06:25:26.916Z,52.30
2023-12-11T06:27:54.585Z,61.10
2023-12-11T06:30:23.625Z,55.50
2023-12-11T06:32:51.261Z,65.40
2023-12-11T06:35:20.498Z,59.90
2023-12-11T06:37:48.096Z,63.70
2023-12-11T06:40:15.735Z,58.40
2023-12-11T06:42:43.328Z,62.60
2023-12-11T06:45:12.076Z,65.60
2023-12-11T06:47:39.715Z,55.70
2023-12-11T06:50:07.716Z,60.90
2023-12-11T06:52:35.401Z,58.70
2023-12-11T06:55:04.042Z,60.30
2023-12-11T06:57:32.126Z,59.30
2023-12-11T06:59:59.826Z,56.40
2023-12-11T07:02:28.301Z,57.10
2023-12-11T07:04:56.220Z,60.60
2023-12-11T07:07:23.979Z,59.40
2023-12-11T07:09:51.673Z,58.60
2023-12-11T07:12:19.427Z,56.60
2023-12-11T07:14:48.256Z,59.20
2023-12-11T07:17:15.819Z,59.90
2023-12-11T07:19:43.829Z,61.10
2023-12-11T07:22:11.473Z,60.10
2023-12-11T07:24:39.090Z,61.40
2023-12-11T07:27:07.399Z,56.80
2023-12-11T07:29:34.929Z,60.00
2023-12-11T07:32:02.524Z,60.80
2023-12-11T07:34:31.216Z,60.90
2023-12-11T07:36:59.342Z,61.40
2023-12-11T07:39:27.367Z,62.60
2023-12-11T07:41:56.002Z,61.70
2023-12-11T07:44:26.109Z,64.60
2023-12-11T07:46:55.098Z,63.70
2023-12-11T07:49:23.627Z,58.90
2023-12-11T07:51:53.120Z,63.90
2023-12-11T07:54:23.785Z,61.70
2023-12-11T07:56:59.126Z,69.70
2023-12-11T07:59:26.833Z,71.30
2023-12-11T08:01:54.570Z,66.80
2023-12-11T08:04:25.107Z,52.80
2023-12-11T08:06:53.148Z,56.60
2023-12-11T08:09:21.503Z,60.30
2023-12-11T08:11:50.762Z,73.70
2023-12-11T08:14:18.655Z,59.20
2023-12-11T08:16:46.596Z,62.90
2023-12-11T08:19:18.589Z,67.90
2023-12-11T08:21:48.720Z,67.90
2023-12-11T08:24:17.728Z,68.20
2023-12-11T08:26:45.478Z,62.80
2023-12-11T08:29:13.171Z,69.10
2023-12-11T08:31:42.072Z,60.00
2023-12-11T08:34:10.087Z,68.30
2023-12-11T08:36:40.701Z,76.10
2023-12-11T08:39:09.520Z,71.70
2023-12-11T08:41:38.475Z,65.30
2023-12-11T08:44:10.138Z,62.40
2023-12-11T08:46:41.687Z,62.60
2023-12-11T08:49:11.453Z,60.20
2023-12-11T08:51:39.840Z,63.60
2023-12-11T08:54:07.644Z,65.80
2023-12-11T08:56:35.197Z,67.80
2023-12-11T08:59:03.004Z,76.20
2023-12-11T09:01:32.376Z,73.30
2023-12-11T09:04:03.454Z,80.40
2023-12-11T09:06:31.038Z,84.50
2023-12-11T09:08:58.767Z,77.30
2023-12-11T09:11:29.622Z,70.80
2023-12-11T09:14:00.207Z,72.30
2023-12-11T09:16:28.283Z,80.70
2023-12-11T09:18:56.303Z,86.90
2023-12-11T09:21:24.056Z,85.40
2023-12-11T09:23:51.934Z,85.20
2023-12-11T09:26:20.203Z,89.60
2023-12-11T09:28:52.207Z,89.10
2023-12-11T09:31:24.880Z,134.70
2023-12-11T09:33:53.107Z,90.40
2023-12-11T09:36:26.407Z,94.70
2023-12-11T09:38:57.459Z,91.10
2023-12-11T09:41:30.134Z,95.70
2023-12-11T09:43:58.870Z,87.40
2023-12-11T09:46:26.505Z,91.70
2023-12-11T09:48:54.219Z,81.90
2023-12-11T09:51:22.498Z,81.00
2023-12-11T09:53:50.133Z,85.10
2023-12-11T09:56:17.719Z,88.10
2023-12-11T09:58:45.470Z,92.40
2023-12-11T10:01:13.672Z,79.30
2023-12-11T10:03:41.441Z,83.10
2023-12-11T10:06:09.339Z,79.30
2023-12-11T10:08:44.062Z,91.20
2023-12-11T10:11:13.035Z,115.60
2023-12-11T10:13:41.138Z,90.30
2023-12-11T10:16:32.513Z,74.40
2023-12-11T10:19:02.027Z,77.40
2023-12-11T10:21:40.373Z,72.60
2023-12-11T10:24:17.742Z,78.00
2023-12-11T10:26:46.896Z,71.70
2023-12-11T10:29:20.104Z,72.50
2023-12-11T10:31:47.806Z,74.60
2023-12-11T10:34:16.728Z,69.00
2023-12-11T10:36:51.726Z,77.50
2023-12-11T10:39:24.588Z,75.20
2023-12-11T10:41:53.719Z,72.60
2023-12-11T10:44:42.773Z,72.10
2023-12-11T10:49:42.733Z,61.80
2023-12-11T10:52:10.652Z,69.40
2023-12-11T10:54:39.486Z,69.30
2023-12-11T10:59:38.522Z,71.60
2023-12-11T11:02:06.383Z,73.50
2023-12-11T11:04:35.863Z,75.80
2023-12-11T11:07:03.596Z,69.80
2023-12-11T11:09:34.847Z,78.10
2023-12-11T11:12:09.546Z,68.10
2023-12-11T11:14:44.195Z,67.10
2023-12-11T11:17:12.724Z,72.30
2023-12-11T11:20:09.737Z,75.40
2023-12-11T11:22:41.071Z,74.70
2023-12-11T11:25:34.715Z,80.10
2023-12-11T11:28:02.607Z,71.90
2023-12-11T11:30:42.811Z,72.80
2023-12-11T11:33:10.723Z,70.50
2023-12-11T11:35:53.990Z,67.90
2023-12-11T11:38:22.936Z,79.70
2023-12-11T11:40:52.812Z,77.70
2023-12-11T11:43:20.642Z,142.90
2023-12-11T11:45:54.876Z,91.40
2023-12-11T11:48:22.576Z,78.70
2023-12-11T11:50:52.256Z,78.00
2023-12-11T11:53:20.766Z,72.50
2023-12-11T11:55:48.610Z,64.40
2023-12-11T11:58:16.608Z,62.10
2023-12-11T12:00:44.756Z,66.00
2023-12-11T12:03:13.276Z,74.30
2023-12-11T12:05:57.124Z,69.50
2023-12-11T12:08:25.957Z,72.90
2023-12-11T12:10:57.569Z,71.70
2023-12-11T12:13:25.224Z,68.40
2023-12-11T12:15:54.292Z,73.30
2023-12-11T12:18:22.216Z,75.40
2023-12-11T12:21:05.644Z,76.70
2023-12-11T12:23:36.372Z,82.30
2023-12-11T12:26:04.366Z,83.60
2023-12-11T12:28:32.142Z,77.50
2023-12-11T12:30:59.884Z,64.80
2023-12-11T12:33:27.675Z,71.10
2023-12-11T12:35:55.416Z,66.70
2023-12-11T12:38:23.030Z,66.20
2023-12-11T12:40:52.970Z,76.80
2023-12-11T12:43:20.899Z,81.00
2023-12-11T12:45:49.334Z,76.60
2023-12-11T12:48:17.026Z,66.10
2023-12-11T12:50:44.660Z,67.10
2023-12-11T12:53:14.503Z,66.90
2023-12-11T12:55:42.126Z,73.50
2023-12-11T12:58:15.721Z,69.20
2023-12-11T13:02:34.474Z,74.20
2023-12-11T13:05:02.283Z,67.30
2023-12-11T13:07:30.400Z,69.60
2023-12-11T13:09:58.337Z,72.20
2023-12-11T13:12:29.769Z,69.60
2023-12-11T13:14:57.634Z,64.50
2023-12-11T13:17:25.351Z,66.40
2023-12-11T13:19:57.418Z,74.50
2023-12-11T13:22:37.562Z,73.40
2023-12-11T13:25:07.453Z,65.90
2023-12-11T13:34:12.773Z,88.00
2023-12-11T13:36:40.549Z,207.60
2023-12-11T13:39:09.766Z,85.50
2023-12-11T13:41:40.233Z,65.70
2023-12-11T13:44:07.895Z,65.60
2023-12-11T13:46:38.414Z,73.10
2023-12-11T13:49:06.241Z,73.60
2023-12-11T13:51:33.973Z,68.70
2023-12-11T13:54:01.737Z,80.50
2023-12-11T13:56:29.730Z,78.00
2023-12-11T13:58:57.517Z,83.60
2023-12-11T14:01:25.465Z,76.60
2023-12-11T14:03:54.061Z,80.00
2023-12-11T14:06:21.704Z,74.20
2023-12-11T14:08:49.341Z,84.70
2023-12-11T14:11:19.243Z,77.60
2023-12-11T14:13:47.263Z,70.40
2023-12-11T14:16:14.954Z,73.30
2023-12-11T14:18:42.902Z,81.30
2023-12-11T14:21:11.077Z,79.20
2023-12-11T14:23:39.713Z,83.00
2023-12-11T14:26:07.266Z,78.00
2023-12-11T14:28:34.866Z,72.00
2023-12-11T14:31:04.303Z,70.70
2023-12-11T14:33:32.152Z,67.60
2023-12-11T14:35:59.743Z,66.40
2023-12-11T14:38:28.129Z,65.10
2023-12-11T14:40:55.707Z,63.50
2023-12-11T14:43:24.442Z,67.30
2023-12-11T14:45:52.103Z,70.60
2023-12-11T14:48:19.765Z,65.70
2023-12-11T14:50:48.078Z,65.00
2023-12-11T14:53:15.874Z,67.90
2023-12-11T14:55:44.423Z,68.70
2023-12-11T14:58:12.238Z,65.70
2023-12-11T15:00:39.972Z,68.10
2023-12-11T15:03:07.564Z,65.60
2023-12-11T15:05:35.436Z,63.80
2023-12-11T15:08:06.424Z,66.60
2023-12-11T15:10:38.458Z,69.80
2023-12-11T15:13:07.780Z,75.40
2023-12-11T15:15:36.463Z,69.30
2023-12-11T15:18:04.277Z,74.00
2023-12-11T15:20:32.393Z,76.00
2023-12-11T15:23:00.620Z,71.60
2023-12-11T15:25:29.035Z,63.20
2023-12-11T15:27:57.413Z,70.90
2023-12-11T15:30:26.058Z,67.40
2023-12-11T15:32:53.714Z,66.40
2023-12-11T15:35:23.579Z,68.30
2023-12-11T15:37:52.185Z,62.40
2023-12-11T15:40:20.953Z,90.60
2023-12-11T15:42:50.690Z,78.50
2023-12-11T15:45:18.388Z,82.20
2023-12-11T15:48:00.762Z,81.40
2023-12-11T15:50:31.783Z,79.40
2023-12-11T15:53:00.155Z,77.30
2023-12-11T15:55:27.731Z,84.10
2023-12-11T15:57:55.465Z,77.20
2023-12-11T16:00:23.745Z,94.60
2023-12-11T16:02:53.935Z,88.70
2023-12-11T16:05:22.282Z,89.10
2023-12-11T16:07:50.025Z,70.70
2023-12-11T16:10:17.657Z,64.20
2023-12-11T16:12:45.544Z,68.00
2023-12-11T16:15:13.668Z,57.20
2023-12-11T16:17:41.269Z,62.30
2023-12-11T16:20:09.540Z,62.60
2023-12-11T16:22:38.315Z,75.40
2023-12-11T16:25:06.478Z,78.30
2023-12-11T16:27:34.869Z,73.40
2023-12-11T16:30:02.669Z,71.50
2023-12-11T16:32:30.819Z,79.10
2023-12-11T16:35:01.159Z,77.90
2023-12-11T16:37:28.900Z,75.10
2023-12-11T16:39:58.030Z,67.10
2023-12-11T16:42:28.643Z,76.80
2023-12-11T16:44:59.250Z,70.40
2023-12-11T16:47:30.599Z,66.70
2023-12-11T16:50:06.721Z,68.50
2023-12-11T16:52:39.861Z,69.70
2023-12-11T16:55:14.850Z,69.40
2023-12-11T16:57:44.024Z,68.60
2023-12-11T17:00:12.680Z,64.40
2023-12-11T17:02:41.511Z,71.20
2023-12-11T17:05:12.432Z,69.10
2023-12-11T17:07:40.673Z,66.20
2023-12-11T17:10:09.859Z,146.30
2023-12-11T17:12:40.526Z,165.50
2023-12-11T17:15:09.833Z,151.00
2023-12-11T17:17:38.019Z,137.40
2023-12-11T17:20:06.432Z,156.10
2023-12-11T17:22:40.321Z,154.10
2023-12-11T17:25:15.025Z,141.30
2023-12-11T17:27:44.999Z,156.90
2023-12-11T17:30:13.052Z,142.90
2023-12-11T17:32:40.964Z,138.70
2023-12-11T17:35:08.736Z,132.30
2023-12-11T17:37:36.877Z,108.00
2023-12-11T17:40:08.198Z,85.20
2023-12-11T17:43:01.934Z,76.90
2023-12-11T17:45:29.562Z,78.60
2023-12-11T17:47:57.268Z,73.90
2023-12-11T17:50:28.659Z,77.30
2023-12-11T17:52:56.331Z,70.00
2023-12-11T17:55:24.556Z,77.60
2023-12-11T17:57:55.386Z,81.00
2023-12-11T18:00:23.261Z,85.50
2023-12-11T18:02:51.308Z,79.80
2023-12-11T18:05:22.068Z,77.00
2023-12-11T18:07:51.255Z,76.50
2023-12-11T18:10:20.805Z,85.10
2023-12-11T18:12:54.503Z,81.10
2023-12-11T18:15:23.035Z,79.60
2023-12-11T18:17:55.160Z,74.40
2023-12-11T18:20:26.396Z,78.90
2023-12-11T18:22:54.146Z,75.50
2023-12-11T18:25:25.122Z,78.80
2023-12-11T18:27:56.686Z,77.40
2023-12-11T18:30:26.242Z,85.10
2023-12-11T18:32:57.194Z,81.40
2023-12-11T18:35:26.386Z,77.10
2023-12-11T18:37:54.468Z,76.60
2023-12-11T18:40:23.155Z,80.70
2023-12-11T18:42:50.843Z,88.80
2023-12-11T18:45:19.895Z,81.70
2023-12-11T18:47:49.016Z,89.00
2023-12-11T18:50:26.886Z,89.90
2023-12-11T18:52:58.074Z,80.90
2023-12-11T18:55:32.585Z,76.70
2023-12-11T18:58:00.294Z,70.10
2023-12-11T19:00:32.218Z,81.50
2023-12-11T19:03:02.092Z,87.60
2023-12-11T19:05:30.021Z,83.90
2023-12-11T19:07:57.794Z,91.50
2023-12-11T19:10:27.658Z,94.10
2023-12-11T19:12:57.041Z,88.40
2023-12-11T19:15:28.367Z,81.00
2023-12-11T19:22:04.149Z,111.10
2023-12-11T19:24:33.022Z,102.60
2023-12-11T19:27:03.841Z,97.20
2023-12-11T19:29:31.791Z,90.90
2023-12-11T19:32:00.061Z,89.50
2023-12-11T19:34:27.759Z,96.30
2023-12-11T19:36:55.459Z,88.70
2023-12-11T19:39:23.038Z,87.90
2023-12-11T19:41:54.401Z,100.50
2023-12-11T19:44:23.886Z,98.40
2023-12-11T19:46:52.547Z,96.00
2023-12-11T19:49:20.434Z,79.80
2023-12-11T19:51:48.147Z,84.90
2023-12-11T19:54:15.748Z,89.40
2023-12-11T19:56:45.164Z,90.70
2023-12-11T19:59:17.719Z,94.60
2023-12-11T20:01:45.418Z,96.30
2023-12-11T20:04:13.193Z,112.40
2023-12-11T20:06:42.487Z,109.30
2023-12-11T20:09:10.096Z,104.70
2023-12-11T20:11:37.830Z,109.00
2023-12-11T20:14:05.450Z,109.10
2023-12-11T20:16:33.308Z,92.90
2023-12-11T20:19:01.399Z,105.60
2023-12-11T20:21:29.432Z,102.00
2023-12-11T20:23:57.074Z,91.90
2023-12-11T20:26:26.578Z,75.40
2023-12-11T20:28:54.133Z,89.20
2023-12-11T20:31:21.744Z,81.50
2023-12-11T20:33:52.091Z,86.80
2023-12-11T20:36:20.285Z,86.10
2023-12-11T20:38:50.613Z,83.20
2023-12-11T20:41:22.185Z,86.70
2023-12-11T20:43:52.979Z,88.10
2023-12-11T20:46:25.320Z,97.30
2023-12-11T20:48:56.045Z,113.20
2023-12-11T20:51:26.013Z,112.80
2023-12-11T20:53:54.099Z,120.70
2023-12-11T20:56:30.853Z,119.10
2023-12-11T20:59:01.973Z,103.40
2023-12-11T21:01:34.659Z,100.70
2023-12-11T21:04:05.919Z,102.10
2023-12-11T21:06:36.789Z,105.10
2023-12-11T21:09:11.996Z,98.60
2023-12-11T21:11:39.721Z,88.00
2023-12-11T21:14:07.393Z,89.20
2023-12-11T21:16:37.782Z,89.20
2023-12-11T21:19:06.541Z,97.20
2023-12-11T21:21:40.331Z,88.70
2023-12-11T21:24:10.123Z,81.30
2023-12-11T21:26:37.993Z,92.60
2023-12-11T21:29:05.821Z,79.30
2023-12-11T21:31:36.671Z,95.80
2023-12-11T21:34:06.779Z,94.10
2023-12-11T21:36:34.771Z,86.50
2023-12-11T21:39:06.673Z,93.50
2023-12-11T21:41:34.890Z,96.50
2023-12-11T21:44:02.713Z,87.40
2023-12-11T21:46:33.466Z,106.70
2023-12-11T21:49:02.753Z,118.40
2023-12-11T21:51:31.091Z,101.70
2023-12-11T21:53:58.900Z,92.20
2023-12-11T21:56:27.128Z,94.00
2023-12-11T21:58:54.903Z,82.00
2023-12-11T22:01:22.532Z,88.40
2023-12-11T22:03:50.321Z,84.40
2023-12-11T22:06:19.268Z,90.40
2023-12-11T22:08:47.144Z,93.50
2023-12-11T22:11:15.401Z,95.10
2023-12-11T22:13:43.253Z,76.60
2023-12-11T22:16:10.819Z,82.50
2023-12-11T22:18:38.831Z,80.00
2023-12-11T22:21:06.678Z,72.40
2023-12-11T22:23:34.906Z,81.80
2023-12-11T22:26:02.533Z,80.30
2023-12-11T22:28:30.168Z,86.40
2023-12-11T22:30:57.751Z,83.80
2023-12-11T22:33:25.269Z,86.90
2023-12-11T22:35:52.999Z,85.00
2023-12-11T22:38:20.890Z,82.50
2023-12-11T22:40:49.123Z,80.20
2023-12-11T22:43:16.932Z,75.70
2023-12-11T22:45:44.531Z,87.60
2023-12-11T22:48:15.000Z,77.10
2023-12-11T22:50:43.118Z,77.80
2023-12-11T22:53:11.053Z,75.90
2023-12-11T22:55:38.669Z,67.10
2023-12-11T22:58:14.033Z,70.30
2023-12-11T23:00:44.483Z,67.40
2023-12-11T23:03:12.319Z,64.50
2023-12-11T23:05:40.808Z,67.30
2023-12-11T23:08:08.337Z,63.00
2023-12-11T23:10:36.012Z,59.30
2023-12-11T23:13:03.680Z,64.30
2023-12-11T23:15:32.992Z,64.10
2023-12-11T23:18:04.885Z,64.50
2023-12-11T23:20:32.644Z,65.50
2023-12-11T23:23:02.346Z,70.40
2023-12-11T23:25:29.900Z,59.30
2023-12-11T23:27:57.555Z,63.10
2023-12-11T23:30:25.108Z,59.70
2023-12-11T23:32:52.978Z,56.80
2023-12-11T23:35:20.749Z,64.80
2023-12-11T23:37:49.527Z,62.90
2023-12-11T23:40:17.221Z,68.60
2023-12-11T23:42:45.938Z,70.10
2023-12-11T23:45:13.489Z,66.70
2023-12-11T23:47:41.096Z,58.90
2023-12-11T23:50:09.670Z,60.90
2023-12-11T23:52:37.783Z,60.90
2023-12-11T23:55:05.811Z,68.10
2023-12-11T23:57:34.470Z,67.70
